Forest Acres, South Carolina
Current Conditions -  °F | °C
As of 11:22 AM on Sunday 23 Nov 2014 (Local Time) from KCUB Reporting Station
Light Rain Light Rain  
Wind Chill: 55°   Ceiling: 600
Heat Index: 55°   Visibility: 3mi
Dew Point: 53°   Wind: 7mph
Humidity: 93%   Direction: 70°ENE
Pressure: 30.08"   Gusts: NA
Location:  34.025°N, 80.9562°W
Report Text: KCUB 231622Z AUTO 07006KT 3SM -RA BR OVC006 13/12 A3008 RMK AO2 CIG 004V010 PRESFR P0010 T01280117
Loading
Personal Weather Stations






























Interactive Weather Map New forecast layout! Learn more

10-Day Weather Forecast

Advertisements
Track Severe Weather on mobile